CYHY - Hay River / Merlyn Carter Airport

Pirep is a free, collaborative database of all public and private airports located within the United States. All pilots are welcome to contribute, edit, and improve any airport they have local knowledge about, no registration required.
Are you familiar with this airport? Help out other pilots by adding your local knowledge.
Uploaded photos will be licensed under a CC BY-SA 4.0 license. Please only upload photos you have the rights to use.
Tags
Public
Undocu­mented
METAR / TAF
Edit Tags
Food
Camping
Lodging
Car Rental
Bicycles
Swimming
Golfing
Fishing
Hot Springs
Museum
Flying Clubs
Airpark
Upcoming Events
No upcoming events. Is anything happening here soon?
*
*
*

Where exactly on/near the airport is this event taking place?

Is there a webpage with more information for this event?

Who should be contacted for more information?

What is this event all about?

Repeat every
Description
Transient Parking
Fuel Location
Landing & Tie-down Fees
Crew Car Availability
Flying Clubs
WiFi Access
Airport Statistics
Location: Hay River, Northwest Territories
Elevation: 541ft
Runway 14/32: 6,000ft
Runway 05/23: 4,001ft
Warning: This airport was imported from a non-authoritative source. It's public/private status may not be accurate.
Access: Open to the public
Current Weather — VFR
  • Weather data is strictly informational and not for flight planning purposes.
  • METAR
    2024-04-22 00:00:00 MDT
    Ceiling Wind Temperature Dewpoint Weather Visbility
    Sky clear 330° @ 5kt 26°F 24°F N/A 15SM
    Clouds: Few @ 15,000ft, Scattered @ 25,000ft
    Raw: CYHY 220600Z 33005KT 15SM FEW150 SCT250 M03/M04 A2969 RMK AC1CI2 SLP067
  • TAF
    2024-04-22 00:00:00 MDT – 2024-04-22 06:00:00 MDT
    Ceiling Wind Weather Visbility
    Sky clear Variable N/A 6SM
    Clouds: Few @ 15,000ft, Scattered @ 25,000ft
    Raw: TAF CYHY 220540Z 2206/2218 VRB03KT P6SM FEW150 SCT250 BECMG 2212/2214 30010KT RMK NXT FCST BY 221200Z
  • TAF
    2024-04-22 06:00:00 MDT – 2024-04-22 12:00:00 MDT
    Ceiling Wind Weather Visbility
    Sky clear 300° @ 10kt N/A 6SM
    Clouds: Few @ 15,000ft, Scattered @ 25,000ft
    Raw: TAF CYHY 220540Z 2206/2218 VRB03KT P6SM FEW150 SCT250 BECMG 2212/2214 30010KT RMK NXT FCST BY 221200Z
Click/tap to add an annotation marker to the map
Airport Webcams
No webcams added yet.
Direct links to live image URLs will be displayed inline on this page. URLs to separate webpages will be linked to.
URL:
Direct links to live image URLs will be displayed inline on this page. URLs to separate webpages will be linked to.
URL:
Comments
Leave a comment What was your experience like at this airport?